Aeroporto :
LOGIN :

Iscrizione | Disclaimer

   EN    FR    IT 

 










Sommario :    VFR   VFR Marginale   IFR   IFR Intensivo   IFR Molto Intensivo
Visibilità : 
Base nubi : 
>= 8 km
>= 3000ft
5 / 8 km
1000 / 3000 ft
1500m / 5 km
500 / 1000 ft
800 / 1500m
200 / 500 ft
< 800m
< 200 ft
Simboli :   Temporali  Nebbia  Neve Forte  Precipitazioni Forti  Vento > 20 kt
SIGMETs :   Varie  Temporali  Ghiacco  Turbolenza  Onda orograficha  Ceneri Vulcaniche






- Altitudine del aeroporto : 39 ft
- Codice IATA : ANR


EBAW - Anvers / Antwerpen Deurne

ULTIMO METAR :
  • 172220Z AUTO 16006KT CAVOK 12/11 Q1008

METARs OBSOLETI :
  • 172150Z AUTO 16006KT CAVOK 12/11 Q1008
  • 172120Z AUTO 16007KT CAVOK 12/11 Q1008
  • 172050Z 15005KT CAVOK 11/10 Q1008 NOSIG
  • 172020Z 16005KT 9999 FEW018 10/09 Q1008 NOSIG
  • 171950Z 17004KT CAVOK 09/08 Q1009 NOSIG

TAF TAF EBAW
Valido dal 17 a 21 ore il 18 a 06 ore UTC


172003Z 1721/1806 19008KT 9999 SCT020 SCT030
PROB30
TEMPO 1721/1806 4800 SHRA



MetMap, La meteo Aeronautica in un colpo d'occhio ! - Copyright ORBIFLY Dicembre 2007 - Disclaimer

ORBIFLY MET'MAP TEAM :

Programmazione e sviluppo : Alexandra Zaïnal
Concezione e sviluppo : Baudouin d'Aumeries
Co-Programmazione e sviluppo : Marc-Olivier Méhu
Supporto tecnico e logistico : Manuel Goepfert
Aiuto per la traduzione : Arnaldo La Scala

Contatto : metmap@orbifly.com




FONTI E CREDITI :

   NOAA